Time;durP1;ratioP1;P1;durP2;ratioP2;P2;SDS_P1;SDS_P2;PMS_P1;PMS_P2;Temp;Humidity;BMP_temperature;BMP_pressure;BME280_temperature;BME280_humidity;BME280_pressure;Samples;Min_cycle;Max_cycle;Signal;HPM_P1;HPM_P2
2023/06/18 00:04:42;;;;;;;7.47;6.80;;;21.00;55.20;;;;;;10420426;28;20194;-81
2023/06/18 00:09:44;;;;;;;6.87;6.37;;;21.00;55.40;;;;;;10420899;28;20222;-81
2023/06/18 00:14:48;;;;;;;7.53;6.93;;;20.90;55.50;;;;;;10423750;28;20191;-81
2023/06/18 00:19:50;;;;;;;8.00;7.27;;;20.80;55.90;;;;;;10424252;28;20580;-79
2023/06/18 00:24:54;;;;;;;8.03;7.33;;;20.80;55.40;;;;;;10423097;28;20198;-81
2023/06/18 00:29:59;;;;;;;8.17;7.47;;;20.70;55.70;;;;;;10419451;28;20645;-80
2023/06/18 00:35:01;;;;;;;8.27;7.47;;;20.60;56.20;;;;;;10405648;28;20249;-80
2023/06/18 00:40:05;;;;;;;8.20;7.50;;;20.60;56.60;;;;;;10424424;28;20233;-80
2023/06/18 00:45:09;;;;;;;7.57;6.97;;;20.50;56.50;;;;;;10422914;28;20195;-80
2023/06/18 00:50:14;;;;;;;10.73;7.40;;;20.50;56.80;;;;;;10421916;28;20225;-79
2023/06/18 00:55:17;;;;;;;6.90;6.37;;;20.50;56.20;;;;;;10420926;28;20198;-80
2023/06/18 01:00:22;;;;;;;9.17;8.27;;;20.50;56.40;;;;;;10418946;28;20271;-82
2023/06/18 01:05:24;;;;;;;7.70;7.10;;;20.40;56.40;;;;;;10426080;28;20218;-79
2023/06/18 01:10:29;;;;;;;8.33;7.10;;;20.40;56.80;;;;;;10428038;28;20293;-82
2023/06/18 01:15:32;;;;;;;7.83;7.20;;;20.40;56.60;;;;;;10421213;28;20206;-82
2023/06/18 01:20:40;;;;;;;7.80;7.20;;;20.30;57.00;;;;;;10418682;28;20276;-80
2023/06/18 01:25:43;;;;;;;8.10;7.50;;;20.30;57.40;;;;;;10416625;28;20677;-81
2023/06/18 01:30:48;;;;;;;8.03;7.23;;;20.20;56.80;;;;;;10419463;28;20245;-82
2023/06/18 01:35:50;;;;;;;9.07;8.27;;;20.20;56.70;;;;;;10417543;28;20687;-81
2023/06/18 01:40:58;;;;;;;8.23;7.53;;;20.10;56.70;;;;;;10417281;28;20215;-81
2023/06/18 01:46:06;;;;;;;7.20;6.70;;;20.10;56.40;;;;;;10417688;28;20206;-81
2023/06/18 01:51:11;;;;;;;7.90;7.20;;;20.00;57.10;;;;;;10417147;28;20776;-81
2023/06/18 01:56:13;;;;;;;7.63;7.03;;;20.00;57.40;;;;;;10417588;28;20258;-80
2023/06/18 02:01:20;;;;;;;8.43;7.63;;;19.90;56.90;;;;;;10415597;28;20238;-81
2023/06/18 02:06:22;;;;;;;8.57;7.77;;;19.90;57.80;;;;;;10415118;28;20503;-80
2023/06/18 02:11:24;;;;;;;7.80;7.20;;;19.90;58.10;;;;;;10415103;28;20709;-81
2023/06/18 02:16:27;;;;;;;7.67;6.97;;;19.90;58.10;;;;;;10418574;28;20726;-81
2023/06/18 02:21:30;;;;;;;7.80;7.10;;;19.90;57.90;;;;;;10417193;28;20191;-81
2023/06/18 02:26:32;;;;;;;8.33;7.70;;;19.80;57.80;;;;;;10416205;28;20218;-81
2023/06/18 02:31:35;;;;;;;7.73;7.13;;;19.80;58.30;;;;;;10419337;28;20237;-80
2023/06/18 02:36:38;;;;;;;8.87;8.17;;;19.70;58.00;;;;;;10417082;28;20589;-81
2023/06/18 02:41:40;;;;;;;7.20;6.60;;;19.60;58.30;;;;;;10414286;28;20725;-80
2023/06/18 02:46:47;;;;;;;9.10;8.40;;;19.60;58.50;;;;;;10417105;28;20304;-79
2023/06/18 02:51:49;;;;;;;8.17;7.57;;;19.60;58.60;;;;;;10415266;28;20642;-80
2023/06/18 02:56:51;;;;;;;8.43;7.83;;;19.50;58.80;;;;;;10414979;28;20215;-81
2023/06/18 03:01:55;;;;;;;9.03;8.33;;;19.50;59.30;;;;;;10412519;28;20203;-81
2023/06/18 03:06:59;;;;;;;8.70;8.00;;;19.50;58.60;;;;;;10413350;28;20280;-80
2023/06/18 03:12:02;;;;;;;8.70;8.00;;;19.40;59.60;;;;;;10423017;28;20205;-80
2023/06/18 03:17:06;;;;;;;8.70;7.90;;;19.40;58.90;;;;;;10428965;28;20588;-82
2023/06/18 03:22:08;;;;;;;8.37;7.67;;;19.40;59.20;;;;;;10419279;28;20217;-82
2023/06/18 03:27:14;;;;;;;8.23;7.50;;;19.30;58.90;;;;;;10420356;28;20222;-81
2023/06/18 03:32:19;;;;;;;8.30;7.70;;;19.30;59.10;;;;;;10420245;28;20202;-80
2023/06/18 03:37:22;;;;;;;9.40;8.60;;;19.30;59.30;;;;;;10401503;28;20647;-82
2023/06/18 03:42:24;;;;;;;8.80;8.00;;;19.30;59.80;;;;;;10414546;28;20198;-82
2023/06/18 03:47:29;;;;;;;9.00;8.30;;;19.30;59.60;;;;;;10423656;28;20227;-82
2023/06/18 03:52:34;;;;;;;8.00;7.30;;;19.30;59.60;;;;;;10419750;28;20278;-82
2023/06/18 03:57:36;;;;;;;9.40;8.50;;;19.40;60.00;;;;;;10417059;28;20321;-82
2023/06/18 04:02:41;;;;;;;8.70;8.00;;;19.40;59.70;;;;;;10421166;28;20736;-82
2023/06/18 04:07:53;;;;;;;9.47;8.67;;;19.30;60.30;;;;;;10421126;28;20272;-82
2023/06/18 04:12:55;;;;;;;9.33;8.50;;;19.40;60.20;;;;;;10418778;28;20210;-81
2023/06/18 04:17:59;;;;;;;9.67;8.97;;;19.40;60.10;;;;;;10447174;28;20237;-81
2023/06/18 04:23:02;;;;;;;9.53;8.73;;;19.50;60.50;;;;;;10448864;28;20285;-81
2023/06/18 04:28:05;;;;;;;9.00;8.30;;;19.50;61.60;;;;;;10442645;28;20246;-82
2023/06/18 04:33:09;;;;;;;9.03;8.23;;;19.60;61.40;;;;;;10430772;28;20254;-82
2023/06/18 04:38:11;;;;;;;8.50;7.90;;;19.70;61.40;;;;;;10443404;28;20804;-82
2023/06/18 04:43:17;;;;;;;9.07;8.17;;;19.70;61.20;;;;;;10427483;28;20198;-80
2023/06/18 04:48:23;;;;;;;9.57;8.77;;;19.80;61.20;;;;;;10426189;28;20739;-81
2023/06/18 04:53:25;;;;;;;8.27;7.67;;;20.00;62.10;;;;;;10425831;28;20648;-82
2023/06/18 04:58:28;;;;;;;9.50;8.70;;;20.10;61.00;;;;;;10424140;28;20313;-82
2023/06/18 05:03:32;;;;;;;9.30;8.50;;;20.20;61.10;;;;;;10423857;28;20603;-82
2023/06/18 05:08:34;;;;;;;10.00;9.10;;;20.30;61.30;;;;;;10423893;28;20222;-81
2023/06/18 05:13:36;;;;;;;8.90;8.20;;;20.30;61.20;;;;;;10425922;28;20218;-81
2023/06/18 05:18:40;;;;;;;9.93;9.10;;;20.40;61.70;;;;;;10436992;28;20253;-81
2023/06/18 05:23:46;;;;;;;7.37;6.87;;;20.40;61.50;;;;;;10433731;28;20202;-80
2023/06/18 05:28:48;;;;;;;8.03;7.43;;;20.40;61.40;;;;;;10423104;28;20226;-79
2023/06/18 05:33:51;;;;;;;9.07;8.27;;;20.50;61.60;;;;;;10425855;28;20290;-81
2023/06/18 05:38:58;;;;;;;8.83;8.03;;;20.50;61.90;;;;;;10416070;28;20260;-80
2023/06/18 05:44:02;;;;;;;9.03;8.27;;;20.60;62.30;;;;;;10423099;28;20253;-80
2023/06/18 05:49:06;;;;;;;8.73;7.90;;;20.60;62.80;;;;;;10424410;28;20222;-81
2023/06/18 05:54:09;;;;;;;9.40;8.60;;;20.70;62.60;;;;;;10423387;28;20651;-81
2023/06/18 05:59:11;;;;;;;9.40;8.60;;;20.80;62.80;;;;;;10421973;28;20227;-81
2023/06/18 06:04:21;;;;;;;9.83;8.93;;;20.90;64.00;;;;;;10422479;28;20206;-81
2023/06/18 06:09:24;;;;;;;9.83;9.03;;;21.00;63.50;;;;;;10421905;28;20253;-80
2023/06/18 06:14:26;;;;;;;10.33;9.47;;;21.10;63.60;;;;;;10423145;28;20203;-81
2023/06/18 06:19:30;;;;;;;9.40;8.53;;;21.30;63.50;;;;;;10425749;28;20305;-81
2023/06/18 06:24:32;;;;;;;9.73;8.93;;;21.40;63.50;;;;;;10422488;28;20202;-80
2023/06/18 06:29:34;;;;;;;10.00;9.07;;;21.50;63.10;;;;;;10420948;28;20229;-81
2023/06/18 06:34:38;;;;;;;9.73;8.93;;;21.60;63.40;;;;;;10417868;28;20214;-81
2023/06/18 06:39:41;;;;;;;10.20;9.30;;;21.80;63.40;;;;;;10416591;28;20218;-80
2023/06/18 06:44:43;;;;;;;10.30;9.40;;;21.90;63.70;;;;;;10421670;28;20226;-81
2023/06/18 06:50:02;;;;;;;9.93;9.03;;;22.10;64.20;;;;;;10421827;28;20226;-81
2023/06/18 06:55:26;;;;;;;9.37;8.57;;;22.30;63.50;;;;;;10411449;28;20566;-81
2023/06/18 07:00:28;;;;;;;9.77;8.97;;;22.60;61.90;;;;;;10421821;28;20222;-81
2023/06/18 07:05:32;;;;;;;12.03;9.10;;;22.90;61.80;;;;;;10422625;28;20670;-81
2023/06/18 07:10:35;;;;;;;9.87;9.00;;;23.20;60.60;;;;;;10435721;28;20215;-81
2023/06/18 07:15:37;;;;;;;11.27;8.43;;;23.40;60.30;;;;;;10430569;28;20616;-81
2023/06/18 07:20:40;;;;;;;9.37;8.50;;;23.70;59.40;;;;;;10443900;28;20245;-78
2023/06/18 07:25:43;;;;;;;10.57;9.47;;;23.90;58.60;;;;;;10466577;28;20209;-80
2023/06/18 07:30:45;;;;;;;10.43;9.43;;;24.20;58.80;;;;;;10438221;28;20218;-81
2023/06/18 07:35:49;;;;;;;9.77;8.87;;;24.40;57.90;;;;;;10435331;28;20221;-81
2023/06/18 07:40:51;;;;;;;8.50;7.70;;;24.70;56.80;;;;;;10435737;28;20216;-80
2023/06/18 07:45:53;;;;;;;9.40;8.50;;;24.90;57.30;;;;;;10444223;28;20197;-81
2023/06/18 07:50:56;;;;;;;9.20;8.30;;;25.10;57.00;;;;;;10441806;28;20628;-81
2023/06/18 07:55:58;;;;;;;9.43;8.53;;;25.40;56.50;;;;;;10446102;28;20651;-80
2023/06/18 08:01:00;;;;;;;8.70;8.00;;;25.60;56.10;;;;;;10431074;28;20239;-81
2023/06/18 08:06:04;;;;;;;9.03;8.13;;;25.80;56.00;;;;;;10419029;28;20195;-79
2023/06/18 08:11:06;;;;;;;8.43;7.73;;;26.10;55.70;;;;;;10422262;28;20702;-79
2023/06/18 08:16:08;;;;;;;8.07;7.37;;;26.30;55.80;;;;;;10422057;28;20202;-80
2023/06/18 08:21:12;;;;;;;9.17;8.37;;;26.50;54.60;;;;;;10418979;28;20214;-80
2023/06/18 08:26:15;;;;;;;8.87;8.07;;;26.80;54.60;;;;;;10417686;28;20658;-81
2023/06/18 08:31:17;;;;;;;9.20;8.50;;;26.90;54.70;;;;;;10417642;28;20238;-79
2023/06/18 08:36:21;;;;;;;8.90;8.20;;;27.20;54.10;;;;;;10420360;28;20206;-80
2023/06/18 08:41:23;;;;;;;7.73;7.13;;;27.40;52.60;;;;;;10426590;28;20218;-82
2023/06/18 08:46:28;;;;;;;8.10;7.50;;;27.70;52.00;;;;;;10429874;28;20677;-83
2023/06/18 08:51:33;;;;;;;6.60;6.00;;;28.00;50.70;;;;;;10426213;28;20230;-82
2023/06/18 08:56:43;;;;;;;8.60;7.13;;;28.40;47.90;;;;;;10427779;28;20570;-81
2023/06/18 09:01:47;;;;;;;8.10;7.40;;;28.90;48.00;;;;;;10427104;28;20191;-83
2023/06/18 09:06:51;;;;;;;7.50;6.90;;;29.40;44.80;;;;;;10422429;28;20211;-83
2023/06/18 09:11:55;;;;;;;8.37;7.67;;;29.90;43.50;;;;;;10417668;28;20241;-83
2023/06/18 09:16:58;;;;;;;7.23;6.63;;;30.60;43.30;;;;;;10400254;28;20656;-83
2023/06/18 09:22:13;;;;;;;7.90;7.10;;;31.20;39.90;;;;;;10418055;28;20222;-82
2023/06/18 09:27:15;;;;;;;7.10;6.50;;;31.90;40.80;;;;;;10422273;28;20214;-83
2023/06/18 09:32:17;;;;;;;6.80;6.30;;;32.40;39.70;;;;;;10426873;28;20191;-83
2023/06/18 09:37:21;;;;;;;6.70;6.10;;;32.80;40.90;;;;;;10417039;28;20225;-83
2023/06/18 09:42:30;;;;;;;6.10;5.60;;;33.40;38.30;;;;;;10416181;28;20202;-84
2023/06/18 09:47:32;;;;;;;7.37;6.80;;;34.10;36.60;;;;;;10401643;28;20221;-83
2023/06/18 09:52:44;;;;;;;6.75;6.18;;;35.10;35.00;;;;;;10414193;28;20225;-83
2023/06/18 09:57:50;;;;;;;6.40;5.78;;;36.20;35.10;;;;;;10412425;28;20352;-83
2023/06/18 10:02:52;;;;;;;6.40;5.90;;;37.50;35.50;;;;;;10394440;28;20198;-83
2023/06/18 10:07:57;;;;;;;6.43;5.93;;;38.80;33.70;;;;;;10411303;28;20218;-83
2023/06/18 10:13:05;;;;;;;6.25;5.75;;;39.90;32.90;;;;;;10411627;28;20203;-84
2023/06/18 10:18:09;;;;;;;5.60;5.15;;;40.80;31.30;;;;;;10412521;28;20631;-84
2023/06/18 10:23:13;;;;;;;7.00;6.50;;;41.70;32.00;;;;;;10411739;28;20315;-83
2023/06/18 10:28:16;;;;;;;5.50;5.20;;;41.50;31.30;;;;;;10422486;28;20237;-81
2023/06/18 10:33:18;;;;;;;5.38;5.00;;;39.40;31.30;;;;;;10424606;28;20265;-84
2023/06/18 10:38:21;;;;;;;5.17;4.87;;;37.50;33.20;;;;;;10412785;28;20214;-82
2023/06/18 10:43:25;;;;;;;6.50;5.90;;;35.90;34.70;;;;;;10413405;28;20194;-84
2023/06/18 10:48:28;;;;;;;6.30;5.90;;;34.50;36.30;;;;;;10419134;28;20221;-82
2023/06/18 10:53:31;;;;;;;6.80;5.20;;;33.40;35.20;;;;;;10417457;28;20206;-82
2023/06/18 10:58:34;;;;;;;6.50;6.00;;;32.50;36.10;;;;;;10416972;28;20223;-83
2023/06/18 11:03:37;;;;;;;6.90;6.40;;;31.70;38.20;;;;;;10418299;28;20230;-83
2023/06/18 11:08:41;;;;;;;6.20;5.70;;;31.20;38.00;;;;;;10415829;28;20253;-82
2023/06/18 11:13:53;;;;;;;5.93;5.43;;;30.60;38.90;;;;;;10413523;28;20229;-82
2023/06/18 11:18:59;;;;;;;5.47;5.07;;;30.20;40.30;;;;;;10426162;28;20218;-83
2023/06/18 11:24:03;;;;;;;6.73;6.13;;;29.80;41.30;;;;;;10426734;28;20210;-83
2023/06/18 11:29:06;;;;;;;6.43;5.93;;;29.50;40.40;;;;;;10427335;28;20273;-82
2023/06/18 11:34:11;;;;;;;6.30;5.90;;;29.30;41.10;;;;;;10409548;28;20199;-82
2023/06/18 11:39:15;;;;;;;9.00;6.60;;;29.20;40.10;;;;;;10423739;28;20218;-82
2023/06/18 11:44:25;;;;;;;6.80;6.30;;;29.00;40.50;;;;;;10424855;28;20201;-83
2023/06/18 11:49:27;;;;;;;6.00;5.50;;;28.90;40.60;;;;;;10427119;28;20222;-84
2023/06/18 11:54:31;;;;;;;5.33;4.93;;;28.80;40.60;;;;;;10426702;28;20206;-82
2023/06/18 11:59:34;;;;;;;6.03;5.63;;;28.70;41.10;;;;;;10424344;28;20394;-83
2023/06/18 12:04:37;;;;;;;6.47;5.67;;;28.60;40.10;;;;;;10433065;28;20202;-82
2023/06/18 12:09:40;;;;;;;5.50;5.10;;;28.60;39.40;;;;;;10434836;28;20221;-83
2023/06/18 12:14:49;;;;;;;5.80;5.40;;;28.50;41.50;;;;;;10429566;28;20708;-83
2023/06/18 12:19:59;;;;;;;6.50;6.00;;;28.50;42.60;;;;;;10430590;28;20672;-83
2023/06/18 12:25:04;;;;;;;5.83;5.43;;;28.50;41.30;;;;;;10429584;28;20650;-81
2023/06/18 12:30:07;;;;;;;6.03;5.63;;;28.50;40.40;;;;;;10428506;28;20214;-84
2023/06/18 12:35:11;;;;;;;5.77;5.17;;;28.60;41.00;;;;;;10438891;28;20195;-83
2023/06/18 12:40:20;;;;;;;6.07;5.47;;;28.60;42.10;;;;;;10447239;28;20206;-82
2023/06/18 12:45:25;;;;;;;5.70;5.30;;;28.50;43.10;;;;;;10448680;28;20204;-82
2023/06/18 12:50:44;;;;;;;5.83;5.43;;;28.50;42.60;;;;;;10444136;28;20211;-82
2023/06/18 12:55:51;;;;;;;5.77;5.27;;;28.50;41.50;;;;;;10422133;28;20211;-82
2023/06/18 13:00:55;;;;;;;6.23;5.77;;;28.40;42.50;;;;;;10428988;28;20218;-82
2023/06/18 13:05:58;;;;;;;6.13;5.73;;;28.40;41.40;;;;;;10432531;28;20268;-82
2023/06/18 13:11:02;;;;;;;6.07;5.57;;;28.40;42.00;;;;;;10426982;28;20218;-82
2023/06/18 13:16:04;;;;;;;5.67;5.23;;;28.40;42.60;;;;;;10425884;28;20589;-81
2023/06/18 13:21:06;;;;;;;5.77;5.37;;;28.30;42.80;;;;;;10426227;28;20217;-80
2023/06/18 13:26:10;;;;;;;5.10;4.80;;;28.30;42.80;;;;;;10428635;28;20195;-82
2023/06/18 13:31:12;;;;;;;5.23;4.80;;;28.30;42.40;;;;;;10425431;28;20278;-82
2023/06/18 13:36:14;;;;;;;6.20;5.70;;;28.20;42.90;;;;;;10422075;28;20658;-82
2023/06/18 13:41:18;;;;;;;5.83;5.43;;;28.30;43.10;;;;;;10427010;28;20215;-81
2023/06/18 13:46:20;;;;;;;6.30;5.90;;;28.30;43.60;;;;;;10426249;28;20198;-81
2023/06/18 13:51:22;;;;;;;5.90;5.50;;;28.40;43.80;;;;;;10422131;28;20265;-83
2023/06/18 13:56:27;;;;;;;7.87;7.07;;;28.30;43.50;;;;;;10424070;28;20245;-81
2023/06/18 14:01:30;;;;;;;6.10;5.70;;;28.30;42.60;;;;;;10420746;28;20678;-82
2023/06/18 14:06:34;;;;;;;6.47;5.90;;;28.40;41.40;;;;;;10420793;28;20214;-81
2023/06/18 14:11:38;;;;;;;6.03;5.53;;;28.60;41.30;;;;;;10412972;28;20218;-82
2023/06/18 14:16:41;;;;;;;5.03;4.70;;;28.80;42.80;;;;;;10413210;28;20254;-81
2023/06/18 14:21:43;;;;;;;6.03;5.50;;;28.90;45.20;;;;;;10415745;28;20210;-83
2023/06/18 14:26:47;;;;;;;5.80;5.30;;;28.90;42.60;;;;;;10417158;28;20682;-84
2023/06/18 14:31:49;;;;;;;5.10;4.70;;;28.90;44.90;;;;;;10425602;28;20545;-85
2023/06/18 14:36:51;;;;;;;5.13;4.67;;;28.80;45.20;;;;;;10417372;28;20214;-84
2023/06/18 14:41:54;;;;;;;6.30;5.80;;;28.70;45.50;;;;;;10413738;28;20198;-83
2023/06/18 14:46:56;;;;;;;6.37;5.87;;;28.70;44.30;;;;;;10419185;28;20245;-84
2023/06/18 14:51:59;;;;;;;6.40;5.80;;;28.70;43.70;;;;;;10413976;28;20223;-84
2023/06/18 14:57:02;;;;;;;6.77;6.20;;;28.70;42.60;;;;;;10414471;28;20350;-82
2023/06/18 15:02:05;;;;;;;6.93;6.47;;;28.70;43.20;;;;;;10415157;28;20194;-83
2023/06/18 15:07:08;;;;;;;6.90;6.30;;;28.70;44.30;;;;;;10409919;28;20218;-83
2023/06/18 15:12:12;;;;;;;7.13;6.63;;;28.80;45.70;;;;;;10408408;28;20214;-83
2023/06/18 15:17:14;;;;;;;7.20;6.70;;;28.90;45.50;;;;;;10416046;28;20226;-82
2023/06/18 15:22:16;;;;;;;6.63;6.03;;;29.10;44.10;;;;;;10395392;28;20195;-82
2023/06/18 15:27:20;;;;;;;6.90;6.33;;;29.20;42.40;;;;;;10412239;28;20219;-82
2023/06/18 15:32:22;;;;;;;7.03;6.53;;;29.40;42.60;;;;;;10412982;28;20214;-82
2023/06/18 15:37:24;;;;;;;6.70;6.20;;;29.50;42.90;;;;;;10417390;28;20222;-83
2023/06/18 15:42:28;;;;;;;6.00;5.60;;;29.50;44.00;;;;;;10434795;28;20289;-83
2023/06/18 15:47:30;;;;;;;7.10;6.50;;;29.50;43.50;;;;;;10421824;28;20292;-83
2023/06/18 15:52:32;;;;;;;6.63;6.17;;;29.40;44.20;;;;;;10406299;28;20254;-83
2023/06/18 15:57:35;;;;;;;8.20;7.60;;;29.20;43.40;;;;;;10407996;28;20531;-82
2023/06/18 16:02:38;;;;;;;8.60;7.90;;;29.10;44.20;;;;;;10409287;28;20273;-82
2023/06/18 16:07:40;;;;;;;7.40;6.90;;;29.00;45.40;;;;;;10413484;28;20276;-84
2023/06/18 16:12:44;;;;;;;7.37;6.83;;;29.00;43.80;;;;;;10411321;28;20723;-84
2023/06/18 16:17:46;;;;;;;7.63;7.10;;;28.90;45.10;;;;;;10398444;28;20268;-85
2023/06/18 16:22:48;;;;;;;7.47;6.97;;;28.90;45.40;;;;;;10412286;28;20198;-83
2023/06/18 16:27:52;;;;;;;6.93;6.33;;;28.80;44.60;;;;;;10411757;28;20227;-84
2023/06/18 16:32:54;;;;;;;6.87;6.37;;;28.80;44.80;;;;;;10412452;28;20252;-84
2023/06/18 16:37:57;;;;;;;6.67;6.10;;;28.90;44.80;;;;;;10413217;28;20219;-85
2023/06/18 16:43:00;;;;;;;7.00;6.40;;;28.90;45.30;;;;;;10414874;28;20198;-84
2023/06/18 16:48:02;;;;;;;8.33;7.63;;;28.80;46.60;;;;;;10415866;28;20705;-83
2023/06/18 16:53:04;;;;;;;7.20;6.70;;;28.80;46.90;;;;;;10409836;28;20363;-85
2023/06/18 16:58:12;;;;;;;7.83;7.03;;;28.80;48.10;;;;;;10408504;28;20233;-85
2023/06/18 17:03:14;;;;;;;7.60;7.00;;;28.70;48.40;;;;;;10403798;28;20558;-84
2023/06/18 17:08:16;;;;;;;6.97;6.47;;;28.80;46.90;;;;;;10434188;28;20229;-83
2023/06/18 17:13:20;;;;;;;7.90;7.20;;;28.80;48.40;;;;;;10404593;28;20250;-84
2023/06/18 17:18:22;;;;;;;7.13;6.50;;;28.80;48.90;;;;;;10410038;28;20220;-83
2023/06/18 17:23:24;;;;;;;7.80;7.20;;;28.70;47.80;;;;;;10394860;28;20199;-83
2023/06/18 17:28:31;;;;;;;8.20;7.60;;;28.60;48.30;;;;;;10401530;28;20233;-83
2023/06/18 17:33:33;;;;;;;8.73;7.07;;;28.50;49.40;;;;;;10407861;28;20640;-85
2023/06/18 17:38:35;;;;;;;8.23;6.43;;;28.40;49.00;;;;;;10406634;28;20328;-84
2023/06/18 17:43:38;;;;;;;8.20;7.60;;;28.20;50.10;;;;;;10398617;28;20195;-86
2023/06/18 17:48:42;;;;;;;9.10;8.40;;;28.00;49.70;;;;;;10408232;28;20250;-86
2023/06/18 17:53:45;;;;;;;8.50;7.80;;;27.90;48.80;;;;;;10405719;28;20233;-84
2023/06/18 17:58:48;;;;;;;8.00;7.30;;;28.00;48.30;;;;;;10405592;28;20261;-85
2023/06/18 18:03:50;;;;;;;7.63;7.03;;;27.90;50.40;;;;;;10408137;28;20198;-85
2023/06/18 18:08:55;;;;;;;8.60;7.90;;;27.80;50.90;;;;;;10409267;28;20218;-84
2023/06/18 18:13:59;;;;;;;8.57;7.87;;;27.70;51.40;;;;;;10410486;28;20199;-85
2023/06/18 18:19:01;;;;;;;8.20;7.50;;;27.70;51.60;;;;;;10426314;28;20767;-83
2023/06/18 18:24:03;;;;;;;8.33;7.63;;;27.60;52.80;;;;;;10401871;28;20237;-85
2023/06/18 18:29:07;;;;;;;10.30;8.40;;;27.60;52.10;;;;;;10397598;28;20753;-85
2023/06/18 18:34:10;;;;;;;7.80;7.10;;;27.50;52.30;;;;;;10399857;28;20198;-85
2023/06/18 18:39:12;;;;;;;8.97;8.37;;;27.50;53.20;;;;;;10405115;28;20597;-84
2023/06/18 18:44:16;;;;;;;9.13;7.50;;;27.40;53.50;;;;;;10407927;28;20217;-85
2023/06/18 18:49:29;;;;;;;8.20;7.50;;;27.30;54.10;;;;;;10414997;23;20609;-83
2023/06/18 18:54:35;;;;;;;8.67;7.93;;;27.20;53.90;;;;;;10410310;28;20190;-83
2023/06/18 19:00:16;;;;;;;7.93;7.33;;;27.10;53.60;;;;;;10412694;28;20231;-83
2023/06/18 19:05:32;;;;;;;8.23;7.43;;;27.10;53.80;;;;;;10420863;28;20194;-83
2023/06/18 19:16:17;;;;;;;23.83;21.67;;;26.90;53.50;;;;;;10409033;28;20210;-83
2023/06/18 19:26:58;;;;;;;13.00;8.67;;;26.70;55.10;;;;;;10387814;28;20218;-83
2023/06/18 19:32:05;;;;;;;8.67;7.97;;;26.70;55.00;;;;;;10399217;28;20222;-83
2023/06/18 19:37:12;;;;;;;8.90;8.10;;;26.60;55.60;;;;;;10435110;28;20231;-83
2023/06/18 19:42:16;;;;;;;7.67;7.07;;;26.50;54.90;;;;;;10421338;28;20266;-83
2023/06/18 19:47:20;;;;;;;10.90;8.10;;;26.50;55.00;;;;;;10401840;28;20284;-83
2023/06/18 19:52:31;;;;;;;8.10;7.40;;;26.50;55.70;;;;;;10389753;28;20225;-83
2023/06/18 19:57:36;;;;;;;8.70;8.00;;;26.40;56.70;;;;;;10407506;28;20792;-83
2023/06/18 20:02:48;;;;;;;9.27;8.47;;;26.30;54.90;;;;;;10423222;28;20305;-83
2023/06/18 20:08:23;;;;;;;8.20;7.60;;;26.30;55.00;;;;;;10417902;28;20301;-84
2023/06/18 20:13:28;;;;;;;9.90;9.00;;;26.20;55.30;;;;;;10384886;28;20792;-84
2023/06/18 20:18:45;;;;;;;9.00;8.30;;;26.20;55.00;;;;;;10389225;28;20295;-85
2023/06/18 20:24:01;;;;;;;9.60;8.80;;;26.20;54.70;;;;;;10424303;28;20244;-85
2023/06/18 20:29:07;;;;;;;10.10;9.30;;;26.20;54.60;;;;;;10435955;28;20230;-83
2023/06/18 20:34:21;;;;;;;11.83;10.20;;;26.20;54.20;;;;;;10458202;28;20226;-84
2023/06/18 20:39:36;;;;;;;8.57;7.73;;;26.20;54.20;;;;;;10452743;28;20290;-84
2023/06/18 20:44:39;;;;;;;8.30;7.70;;;26.30;52.80;;;;;;10414866;28;20258;-85
2023/06/18 20:49:48;;;;;;;8.67;7.40;;;26.40;52.90;;;;;;10421554;28;20227;-85
2023/06/18 20:54:54;;;;;;;7.87;7.27;;;26.40;52.60;;;;;;10421176;28;20218;-85
2023/06/18 20:59:57;;;;;;;8.33;7.63;;;26.40;53.10;;;;;;10430395;28;20214;-86
2023/06/18 21:05:01;;;;;;;12.20;11.17;;;26.40;53.30;;;;;;10420328;28;20202;-85
2023/06/18 21:10:03;;;;;;;8.47;7.87;;;26.40;53.40;;;;;;10433203;28;20215;-84
2023/06/18 21:15:07;;;;;;;8.40;7.80;;;26.30;54.30;;;;;;10435079;28;20210;-84
2023/06/18 21:20:11;;;;;;;8.63;7.93;;;26.30;54.00;;;;;;10430339;28;20241;-85
2023/06/18 21:25:14;;;;;;;8.60;7.90;;;26.30;54.50;;;;;;10432177;28;20182;-84
2023/06/18 21:30:16;;;;;;;8.77;8.10;;;26.20;54.80;;;;;;10445778;28;20226;-85
2023/06/18 21:35:20;;;;;;;8.23;7.53;;;26.30;54.70;;;;;;10401545;28;20222;-85
2023/06/18 21:40:22;;;;;;;8.90;8.20;;;26.30;54.80;;;;;;10393668;28;20214;-84
2023/06/18 21:45:24;;;;;;;10.40;8.63;;;26.20;55.00;;;;;;10412572;28;20195;-84
2023/06/18 21:50:28;;;;;;;8.23;7.40;;;26.20;55.60;;;;;;10394655;28;20261;-85
2023/06/18 21:55:30;;;;;;;8.93;8.23;;;26.20;56.30;;;;;;10390956;28;20198;-85
2023/06/18 22:00:32;;;;;;;7.93;7.33;;;26.10;55.80;;;;;;10409987;28;20305;-84
2023/06/18 22:05:36;;;;;;;8.27;7.67;;;26.10;56.00;;;;;;10407903;28;20195;-84
2023/06/18 22:10:38;;;;;;;8.90;8.20;;;26.00;55.90;;;;;;10395513;28;20226;-84
2023/06/18 22:15:40;;;;;;;10.80;7.60;;;26.00;55.80;;;;;;10412057;28;20249;-86
2023/06/18 22:20:43;;;;;;;8.30;7.70;;;25.90;57.20;;;;;;10397227;28;20219;-84
2023/06/18 22:25:45;;;;;;;8.10;7.50;;;25.90;57.60;;;;;;10400896;28;20194;-83
2023/06/18 22:30:48;;;;;;;8.20;7.40;;;25.80;56.70;;;;;;10399761;28;20222;-85
2023/06/18 22:35:51;;;;;;;11.10;8.30;;;25.80;56.40;;;;;;10379745;28;20727;-84
2023/06/18 22:40:53;;;;;;;7.63;7.13;;;25.80;56.20;;;;;;10403740;28;20207;-84
2023/06/18 22:45:55;;;;;;;8.70;8.03;;;25.80;56.70;;;;;;10398062;28;20741;-85
2023/06/18 22:50:59;;;;;;;7.83;7.30;;;25.80;56.70;;;;;;10398179;28;20701;-83
2023/06/18 22:56:01;;;;;;;7.77;7.27;;;25.80;57.10;;;;;;10399470;28;20195;-85
2023/06/18 23:01:07;;;;;;;8.40;7.73;;;25.70;57.40;;;;;;10387215;28;20590;-86
2023/06/18 23:06:10;;;;;;;8.83;8.13;;;25.70;57.80;;;;;;10380404;28;20195;-83
2023/06/18 23:11:12;;;;;;;8.53;7.83;;;25.60;57.50;;;;;;10410494;28;20214;-85
2023/06/18 23:16:15;;;;;;;9.17;8.47;;;25.60;57.80;;;;;;10390090;28;20191;-84
2023/06/18 23:21:18;;;;;;;8.50;7.90;;;25.50;58.50;;;;;;10397120;28;20203;-83
2023/06/18 23:26:21;;;;;;;11.50;8.00;;;25.50;58.20;;;;;;10405159;28;20199;-83
2023/06/18 23:31:29;;;;;;;8.20;7.60;;;25.40;58.20;;;;;;10390514;28;20626;-83
2023/06/18 23:36:32;;;;;;;8.40;7.80;;;25.40;58.00;;;;;;10405430;28;20649;-82
2023/06/18 23:41:39;;;;;;;8.20;7.50;;;25.40;57.70;;;;;;10397778;28;20221;-82
2023/06/18 23:46:42;;;;;;;8.23;7.57;;;25.30;57.90;;;;;;10405426;28;20667;-83
2023/06/18 23:51:45;;;;;;;11.20;7.73;;;25.40;57.50;;;;;;10394559;28;20294;-83
2023/06/18 23:57:16;;;;;;;9.03;7.70;;;25.30;57.50;;;;;;10384731;28;20226;-83
